Filtrer par Nom Sexe Groupe d'age
Ventoux MedioFondo 2003
RG. DOS. TEMPS CAT RG. POINTS
1 2313 BASTIAN GUILLAUME 03:28:10:000 C 1 165.00 PLAN DE CUGES, FRANCE
2 2266 CHEVALIER STEPHANE 03:28:12:500 D 1 165.00 GUILLESTRE, FRANCE
3 2469 BEDINI BRUNO 03:30:48:000 D 2 164.45 MANOSQUE, FRANCE
4 2189 MAILLET JEAN-PHILIPPE 03:31:54:000 D 3 163.90 LA DESTROUSSE, FRANCE
5 2379 TOUTAIN LAURENT 03:32:54:000 D 4 163.35 CARPENTRAS, FRANCE
6 2265 VARNIER DAVID 03:34:36:000 D 5 162.80 L'ARGENTIERE LA BESSEE, FRANCE
7 805 COMBE NICOLAS 03:36:58:000 D 6 162.25 BERNEX, SUISSE
8 167 OLIVA STEPHANE 03:41:13:000 D 7 161.70 MARIGNANE, FRANCE
9 2080 NENZI JACQUES 03:43:53:000 D 8 161.15 LES PENNES MIRABEAU, France
10 2054 DE LUCA GENNARO 03:43:54:000 E 1 165.00 SAINT JUST SAINT RAMBERT, FRANCE
11 2011 COTTIN BERNARD 03:43:57:600 D 9 160.60 VEAUCHE, FRANCE
12 2158 NIVOT PASCAL 03:43:59:200 E 2 164.45 CHARMES SUR RHONE, FRANCE
13 2368 DESBRINI CEDRIC 03:43:59:500 C 2 164.45 ESSERTS BLAY, France
14 2404 BLEIN ERIC 03:44:01:000 E 3 163.90 ROUSSET, FRANCE
15 2318 DEWAELE ROMAIN 03:44:02:000 C 3 163.90 VITROLLES, FRANCE
16 2387 BARTHELEMY LAURENT 03:44:35:000 D 10 160.05 GAP, FRANCE
17 2295 PIERRET JEAN MARC 03:44:46:000 C 4 163.35 SAINT LEONARD, France
18 2485 MONTAGNE OLIVIER 03:45:26:000 D 11 159.50 SASSENAGE, FRANCE
19 2055 HUMBERT PHILIPPE 03:45:57:000 D 12 158.95 ST MARCELLIN EN FOREZ, FRANCE
20 2487 SEONNET BERNARD 03:46:08:000 E 4 163.35 SASSENAGE, FRANCE
21 977 DELIERE DOMINIQUE 03:46:49:000 C 5 162.80 PIERRELATTE, FRANCE
22 713 TROUVE LAURENT 03:47:48:000 D 13 158.40 MORNANT, FRANCE
23 2079 MAGE OLIVIER 03:47:50:100 D 14 157.85 PERIGNAT LES SARLIEVE, FRANCE
24 2031 VIGNON LILIAN 03:48:44:000 E 5 162.80 SAINT JEAN EN ROYANS, FRANCE
25 2217 VENDAMME MARC 03:48:45:000 D 15 157.30 MALEMORT DU COMTAT, FRANCE
26 2443 NORTIER J.MICHEL 03:48:45:800 E 6 162.25 VION, FRANCE
27 2007 MEGIAS FLAVIEN 03:49:02:000 D 16 156.75 CABRIERES, FRANCE
28 2179 FREY DANIEL 03:49:03:500 D 17 156.20 SCHERWILLER, FRANCE
29 2130 THIMON GILBERT 03:50:53:000 E 7 161.70 TRAMAYES, FRANCE
30 2331 FALINI ALEXANDRE 03:51:04:000 E 8 161.15 LAMBESC, FRANCE
31 375 TURINI JEROME 03:51:09:800 D 18 155.65 LE PUY ST REPARADE, FRANCE
32 2470 FOURET CHRISTIAN 03:51:19:000 E 9 160.60 AIX EN PROVENCE, FRANCE
33 2389 ROUGNY RAPHAEL 03:51:20:200 D 19 155.10 LA BATIE NEUVE, FRANCE
34 231 NUSS ALEXANDRE 03:51:35:000 D 20 154.55 LYON, FRANCE
35 2261 RUSINOWICZ DANIEL 03:52:00:000 D 21 154.00 MOULEZAN, FRANCE
36 2190 LASSEEL BART 03:52:01:000 D 22 153.45 OOSTENDE, BELGIQUE
37 62 ROCHE ALAIN 03:52:40:000 E 10 160.05 ST ETIENNE DE CROSSEY, FRANCE
38 2008 DEGANO STEPHANE 03:53:00:000 D 23 152.90 Mandelieu, France
39 2428 TRIOLO FREDERIC 03:53:31:000 D 24 152.35 MEYREUIL, FRANCE
40 2496 GRAU DANIEL 03:53:32:100 E 11 159.50 MERCUROL, FRANCE
41 2358 MARCELIN LUDOVIC 03:53:33:100 C 6 162.25 ROCHEGUDE, France
42 2233 LAIGUESSE FRANK 03:53:34:000 D 25 151.80 LIEPVRE, FRANCE
43 978 JOUIN ARNAUD 03:53:35:000 C 7 161.70 MONTELIMAR, FRANCE
44 2359 ROMEAS SERGE 03:53:35:000 D 26 151.25 LANTRIAC, FRANCE
45 142 LUBESPERE J.FRANCOIS 03:54:04:000 E 12 158.95 ORANGE, FRANCE
46 2222 FOUGEROUSE LUC 03:54:30:000 E 13 158.40 SAINT ETIENNE, France
47 2386 DURAND MARC 03:55:26:000 E 14 157.85 LA BATIE NEUVE, FRANCE
48 2238 POITOU SERGE 03:55:26:500 D 27 150.70 LUNEL, FRANCE
49 278 REVY FREDERIC 03:55:59:600 D 28 150.15 VOLX, FRANCE
50 2466 BERNARD PATRICE 03:56:40:000 E 15 157.30 LE PLESSIS ROBINSON, FRANCE
51 2422 ARNAL ROBERT 03:56:41:200 E 16 156.75 MARSEILLE, FRANCE
52 2131 VOUILLON BERNARD 03:56:58:000 E 17 156.20 TRAMBLY, France
53 2373 BALAZARD PASCAL 03:57:24:300 E 18 155.65 BEDOIN, FRANCE
54 2330 GRAS DIDIER 03:57:24:600 E 19 155.10 ROGNES, FRANCE
55 2369 FREAU DENIS 03:58:58:000 F 1 165.00 PIOLENC, France
56 2242 BARD ALAIN 03:59:27:000 E 20 154.55 SATILLIEU, FRANCE
57 2456 ARMATI BERNARD 03:59:28:000 E 21 154.00 VALENCE, FRANCE
58 2153 RICHEDA WESLEY 04:00:43:000 C 8 161.15 LA CIOTAT, FRANCE
59 2247 BRETON HERVE 04:00:48:000 D 29 149.60 AIX LES BAINS, FRANCE
60 2411 CHAIX DANIEL 04:00:48:900 E 22 153.45 ST MARTIN D HERES, FRANCE
61 2228 ANASTASIO FRANCK 04:01:27:000 E 23 152.90 CAP D'AIL, FRANCE
62 2076 DEJOUR RAPHAEL 04:01:28:000 D 30 149.05 BESANCON, FRANCE
63 992 BONNET FLORENT 04:01:32:000 C 9 160.60 PRADES LE LEZ, FRANCE
64 2004 SANSONE PIERRE 04:01:42:000 D 31 148.50 AIX EN PROVENCE, FRANCE
65 2204 ZOPPARDO PATRICK 04:02:22:000 E 24 152.35 BERNIN, FRANCE
66 2236 RENAILLE JEAN PAUL 04:02:23:000 F 2 164.45 SAINT JEAN DE VERGES, FRANCE
67 2084 CELLE MICHEL 04:02:24:400 D 32 147.95 FRAISSES, FRANCE
68 2356 MORAND PIERRE ALAIN 04:02:25:000 E 25 151.80 SERVOZ, FRANCE
69 2417 GUERAULT LUDOVIC 04:02:53:000 D 33 147.40 MONCHEVILLE, FRANCE
70 2409 LEMLER JEAN JACQUES 04:02:53:900 F 3 163.90 LES MARCHES, FRANCE
71 2064 SAILLARD RAPHAEL 04:03:31:000 C 10 160.05 LA ROCHETTE, FRANCE
72 2450 MARROU RICHARD 04:03:31:000 F 4 163.35 GARGAS, FRANCE
73 2124 DELAYRE FREDERIC 04:03:32:100 D 34 146.85 MOIRANS EN MONTAGNE, FRANCE
74 2309 GRILLAT SYLVAIN 04:03:37:000 C 11 159.50 LE POUZIN, FRANCE
75 2420 VALDES DOMINIQUE 04:03:38:000 E 26 151.25 MARTIGUES, FRANCE
76 2472 RENDU STEPHANE 04:03:39:000 E 27 150.70 MEYREUIL, FRANCE
77 2000 CAUDRON J.PAUL 04:03:41:000 E 28 150.15 TOULON, FRANCE
78 343 BETREMIEUX JACKY 04:03:46:000 F 5 162.80 GAP, FRANCE
79 2396 BOUDRAS J.CLAUDE 04:05:52:000 E 29 149.60 ST ETIENNE, FRANCE
80 2497 AUDFRAY PATRICK 04:05:52:000 E 30 149.05 TOURNON, FRANCE
81 2229 ADGE CHRISTOPHE 04:05:55:300 E 31 148.50 CEYRAS, FRANCE
82 2053 MALEYSSON SERGE 04:06:12:000 D 35 146.30 42210 - BELLEGARDE EN FOREZ, France
83 2262 BONHOMME ERIC 04:06:35:000 D 36 145.75 SAINT ETIENNE, FRANCE
84 2156 ESTIENNE RENAUD 04:07:17:000 D 37 145.20 CEYRESTE, FRANCE
85 118 DUPERRAY DAVID 04:07:23:000 D 38 144.65 BEVENAIS, FRANCE
86 2121 GAUTHIER BERNARD 04:07:47:000 E 32 147.95 FONS SUR LUSSAN, FRANCE
87 2003 ROZEC JEAN NOEL 04:08:13:000 E 33 147.40 LA MURETTE, FRANCE
88 2419 VACHER FREDERIC 04:08:15:100 E 34 146.85 DURTOL, FRANCE
89 2490 ANTONIALI MICHEL 04:08:33:000 E 35 146.30 MONTOISON, FRANCE
90 2455 CARE PHILIPPE 04:08:35:100 E 36 145.75 VILLENEUVE LES AVIGNON, FRANCE
91 717 JANNIN JEAN-LOUIS 04:09:00:600 F 6 162.25 MONTPELLIER, FRANCE
92 2104 BADJI SAID 04:09:20:000 F 7 161.70 OULLINS, FRANCE
93 172 LOPEZ RAFAEL 04:09:29:900 F 8 161.15 BOUC BEL AIR, FRANCE
94 2277 DA SILVA JOSE 04:10:04:000 E 37 145.20 BERGHEIM, FRANCE
95 2219 NOEL ERIC 04:10:05:000 E 38 144.65 MORMOIRON, FRANCE
96 2188 PELLOUX PATRICK 04:10:05:500 D 39 144.10 ROUSSET, FRANCE
97 2453 TAILLAND PHILIPPE 04:10:05:800 E 39 144.10 MONTELIMAR, FRANCE
98 987 BERTRAND MARC 04:10:06:000 E 40 143.55 ISTRES, FRANCE
100 969 BERGAS MARC 04:11:29:000 D 40 143.55 AIX EN PROVENCE, FRANCE
101 974 CATTANEO FRANCK 04:11:29:600 C 12 158.95 ROUSSILLON, FRANCE
102 2282 BERTHONNIER AGNES 04:11:31:000 A 1 165.00 GAP, FRANCE
103 2201 VEILLARD PATRICK 04:11:33:200 E 42 142.45 FAVEAU, FRANCE
104 259 SANCHEZ GERARD 04:12:24:000 D 41 143.00 RESTINCLIERES, FRANCE
105 2425 FAIN ROLAND 04:12:38:000 F 9 160.60 GRASSE, FRANCE
106 2029 SARAMITO BRUNO 04:12:40:400 D 42 142.45 MOUGINS, FRANCE
107 854 MAMBRE GILLES 04:12:54:400 D 43 141.90 TOULON, FRANCE
108 2304 BOYER JEAN CHARLES 04:13:21:000 C 13 158.40 CARPENTRAS, FRANCE
109 486 ROMERO PATRICK 04:13:37:000 E 43 141.90 MILLAU, FRANCE
110 412 BANDINI BRUNO 04:13:38:300 E 44 141.35 PONT ST ESPRIT, FRANCE
111 114 BATY GILLES 04:13:41:000 E 45 140.80 ROMANS SUR ISERE, FRANCE
112 2044 IDRAC LUC 04:14:07:000 E 46 140.25 LABRIHE, FRANCE
113 2486 DALLA BONA NOEL 04:14:08:900 E 47 139.70 SASSENAGE, FRANCE
114 2140 ROUDIL JACQUES 04:14:10:000 E 48 139.15 VILLEUNEUVE LES AVIGNON, FRANCE
115 2445 COURET PASCAL 04:14:33:000 D 44 141.35 LEMPDES, FRANCE
116 2009 DARMON ERICK 04:14:41:000 E 49 138.60 BAGNOLS EN FORET, FRANCE
117 2129 FAGES CHRISTIAN 04:15:12:900 G 1 165.00 LAUELANET, FRANCE
118 2180 SERGENT PHILIPPE 04:15:13:700 E 50 138.05 GABRIERES D AVIGNON, FRANCE
119 999 MISSILLIER JEAN LOUIS 04:15:39:000 F 10 160.05 EPAGNY, FRANCE
120 2224 BONNABEL GERARD 04:15:50:000 E 51 137.50 ORCIERES, FRANCE
121 2499 STREPENNE CHRISTIAN 04:15:50:000 G 2 164.45 GAP, FRANCE
122 2395 KOUWENHOVEN WYTSKE 04:16:15:000 A 2 164.45 BOLLENE, FRANCE
123 2468 SPATI JEROME 04:16:23:000 C 14 157.85 ST PIERRE DE VASSOLS, FRANCE
124 897 LEPORT FRANCK 04:16:24:000 E 52 136.95 CRAPONNE, FRANCE
125 958 COINTRE CYRIL 04:16:24:300 C 15 157.30 MORMOIRON, FRANCE
126 2181 VILLARD PATRICE 04:16:24:600 E 53 136.40 MERCUROL, FRANCE
127 2016 FERRERE GERARD 04:16:25:000 F 11 159.50 ECHIROLLES, FRANCE
128 2478 BASSO J.MICHEL 04:16:27:000 D 45 140.80 LAURIS, FRANCE
129 323 FAUCAN TOM 04:18:02:000 D 46 140.25 BOUYON, FRANCE
131 2065 VIGARA GERARD 04:19:26:600 F 12 158.95 FOIX, FRANCE
132 2267 CUESTA HILARIO 04:19:40:000 D 47 139.70 MURVIEL LES MONTPELLIER, FRANCE
133 2474 MARTINEZ JOSE RAMON 04:19:41:900 F 13 158.40 BOULIEU, FRANCE
134 2431 VAUDREVILLE LAURENT 04:19:42:600 D 48 139.15 MISON, FRANCE
135 2402 CASENAVE EVELYNE 04:19:43:000 A 3 163.90 FOIX, FRANCE
136 2241 JOUVE ALAIN 04:19:46:200 D 49 138.60 ANNONAY, FRANCE
137 2063 SAILLARD GEORGES 04:19:49:000 F 14 157.85 LA ROCHETTE, FRANCE
138 2494 PENVEN MIKAEL 04:20:04:000 D 50 138.05 BOURGOIN JALLIEU, FRANCE
139 428 DUBOIS JEAN-MARIE 04:20:12:700 F 15 157.30 LE LOCLE, SUISSE
140 722 GUICHOUX PATRICE 04:20:14:100 D 51 137.50 TOULON, FRANCE
141 2022 LEONET CHRISTIAN 04:20:19:800 E 54 135.85 NANDRIN, BELGIQUE
142 2120 GERTHOFFERT PAUL 04:20:21:000 E 55 135.30 TURCKHEIM, FRANCE
143 2353 RUFFEZ DENIS 04:20:21:000 E 56 134.75 VILLEBOIS, FRANCE
144 2197 MONTOLIO FREDERIC 04:20:24:200 D 52 136.95 CHAPONOST, France
145 2458 CASTOR BERNARD 04:20:53:600 E 57 134.20 LE POET, FRANCE
147 2273 RIFFARD FRANCK 04:20:57:000 D 53 136.40 VIVIERS, FRANCE
148 576 FRANSSEN STEF 04:21:32:000 D 54 135.85 GAP, FRANCE
149 2165 LALOUX GUY 04:21:51:000 G 3 163.90 BEERSEL, Belgique
150 2164 COUSTON GUY 04:22:17:000 E 59 133.10 TRETS, FRANCE
151 2139 PICOT FABRICE 04:22:18:000 C 16 156.75 POURCIEUX, FRANCE
152 2175 HOBON PAUL 04:22:22:500 G 4 163.35 ELBEUF, FRANCE
153 2042 GAUTHIER GUSTAVE 04:22:28:000 G 5 162.80 LANAY SUR MER, FRANCE
154 2059 DUSSART JEAN 04:23:28:000 G 6 162.25 MARSEILLE, FRANCE
155 2028 BOUQUET PIERRE 04:23:59:000 E 60 132.55 MARSEILLE, FRANCE
156 2352 LE BRUN AYMERIC 04:24:47:800 C 17 156.20 TOURS, FRANCE
157 548 DIGONNET ERIC 04:25:12:000 E 61 132.00 ST JUST MALMONT, FRANCE
158 247 MARTINO JEAN 04:25:14:000 F 16 156.75 MALAUCENE, FRANCE
159 2350 LORIENTE YANNICK 04:25:27:000 D 55 135.30 CHATEAURENARD, FRANCE
160 2127 PATOIS YVES 04:25:28:500 E 62 131.45 ANDILLY, FRANCE
161 235 AIME PHILIPPE 04:25:31:000 D 56 134.75 VENELLES, FRANCE
162 2476 CAUVIN RICHARD 04:25:51:400 E 63 130.90 MARTIGUES, FRANCE
163 2033 MARINO ANDRE 04:25:58:000 F 17 156.20 FOS SUR MER, FRANCE
164 2185 BEGAGNON DANIEL 04:25:58:800 F 18 155.65 ST PAUL TROIS CHATEAUX, FRANCE
165 990 BOURDON YVAN 04:26:07:000 C 18 155.65 FRONTIGNAN, FRANCE
166 2083 GUILLAUME JEAN 04:26:10:200 E 64 130.35 ST ETIENNE, FRANCE
167 2365 BONHOMME PATRICE 04:26:11:000 E 65 129.80 TRAMAYES, FRANCE
168 2060 STELLA CHANTAL 04:26:11:200 B 1 165.00 LE CENDRE, FRANCE
169 2213 CABAUD DANIEL 04:26:12:000 F 19 155.10 SAINT MAURICE L EXIL, FRANCE
170 2192 RICHOU JACQUES 04:26:13:000 F 20 154.55 CHATEAUNEUF DU RHONE, FRANCE
171 964 NOTIN PATRICE 04:26:24:000 C 19 155.10 MARSEILLE, FRANCE
172 791 LE PLOMB DENIS 04:26:38:000 E 66 129.25 CHAMBERY, FRANCE
173 648 BOTTA LOUIS 04:26:58:000 F 21 154.00 ASPRES / BUECH, FRANCE
174 2457 BOST GUY 04:27:10:400 F 22 153.45 VALENCE, FRANCE
175 2371 DOUTAZ MICHEL 04:27:19:000 E 67 128.70 LYON, FRANCE
176 587 BRUN DOMINIQUE 04:27:26:000 E 68 128.15 POUSSAN, FRANCE
177 762 JOUVE JOEL 04:27:46:000 D 57 134.20 SAINT AGREVE, FRANCE
178 748 DONKERSLOOT ARJEN 04:28:20:000 D 58 133.65 LEIDEN, Pays-Bas
179 749 VISSCHER KARINA 04:28:22:000 A 4 163.35 LEIDEN, Pays-Bas
180 991 PAYEN J.CLAUDE 04:28:25:000 E 69 127.60 ISTRES, FRANCE
181 2480 GALLEN NATHALIE 04:28:54:000 A 5 162.80 MARTIGUES, FRANCE
182 2302 KAPTEIN HARRIE 04:29:15:000 F 23 152.90 VLAARDINGEN, Pays-Bas
183 621 FLORY ERIC 04:29:27:000 E 70 127.05 MARTIGUES, FRANCE
184 2392 PUAUX ALAIN 04:29:29:000 E 71 126.50 VALUIGNERES, FRANCE
185 2364 LEPY ROGER 04:30:10:800 E 72 125.95 TRAMAYES, FRANCE
186 2385 RUGGERIO JOSEPH 04:30:12:000 E 73 125.40 LE VERSOUD, FRANCE
187 2341 VUILLOD ROBERT 04:30:12:100 F 24 152.35 PONT-EN-ROYANS, FRANCE
188 465 ROLLINI MARC 04:30:13:100 C 20 154.55 CHAMBESY, Suisse
189 596 BRUNET MANQUAT COCHILLOT GILBERT 04:30:15:000 E 74 124.85 SAINT MARTIN DE CRAU, FRANCE
190 300 PIERRE J.MARC 04:30:18:000 F 25 151.80 CHATELGUYON, FRANCE
191 168 FOURNIER JEAN FRANCOIS 04:30:23:000 D 59 133.10 GARCHES, FRANCE
192 676 HERNANDEZ JEAN PIERRE 04:30:53:000 E 75 124.30 CLONAS SUR VAREZE, FRANCE
193 838 BOTTESI JEAN LOUIS 04:30:58:000 F 26 151.25 VILLARD DE LANS, FRANCE
194 528 PINCZON DU SEL OLIVIER 04:30:59:000 D 60 132.55 FUVEAU, France
195 2135 ALLEMAND GERARD 04:31:13:000 D 61 132.00 GAP, FRANCE
196 976 HASSELMANN JON 04:31:16:000 E 76 123.75 , Pays-Bas
197 2110 GUIBERT REGIS 04:31:39:000 F 27 150.70 ST ZACHARIE, FRANCE
198 2449 LOUCHART ERIC 04:32:06:000 E 77 123.20 SALON DE PROVENCE, FRANCE
200 2357 GENITONI ROBERT 04:32:13:500 G 7 161.70 PERRIGUY S/ ARMANCON, FRANCE
201 2216 LORINO LUC 04:32:27:000 E 78 122.65 TOULON, FRANCE
202 212 GIORGI SYLVAIN 04:32:31:700 E 79 122.10 TRETS, FRANCE
203 2283 GONZALES CLAUDE 04:33:05:000 E 80 121.55 LES MATELLES, FRANCE
204 950 DESPLANCHES FREDERIC 04:33:06:000 D 62 131.45 MONTEYNARD, FRANCE
205 2043 MERY JEAN-MARC 04:33:08:300 E 81 121.00 CHARBONNIERES LES BAINS, FRANCE
206 2471 PRUDHON THIERRY 04:34:41:000 D 63 130.90 NICE, FRANCE
207 837 MAISON ALAIN 04:34:46:000 E 82 120.45 BOGEVE, FRANCE
208 929 BUREAU DIDIER 04:34:47:000 E 83 119.90 VELAUX, FRANCE
209 2424 GUERAULT FABRICE 04:34:51:000 D 64 130.35 CHATEAU LANDON, FRANCE
210 2308 ANTOINE WALTER 04:35:13:000 D 65 129.80 ST PAUL TROIS CHATEAUX, FRANCE
211 2167 RAFANO SERGE 04:35:19:600 E 84 119.35 MARSEILLE, FRANCE
212 841 GANICHOT GILBERT 04:35:50:000 E 85 118.80 SABLET, FRANCE
213 2122 CLOZEL FREDERIC 04:36:00:000 D 66 129.25 VILLEURBANNE, FRANCE
214 2058 CLAVIER JOEL 04:36:01:000 G 8 161.15 VOIRON, FRANCE
216 2351 JOURDAN BERNARD 04:36:03:100 F 29 149.60 LES ANGLES, FRANCE
217 2355 FERREIRA JACQUES 04:36:04:000 E 87 117.70 CHAMONIX, FRANCE
218 995 BARRACHIN JEAN YVES 04:36:04:700 E 88 117.15 THONES, France
219 2427 AURIOL GHISLAIN 04:36:06:000 F 30 149.05 LA VALETTE, FRANCE
220 2380 TOUTAIN YVES 04:36:07:000 G 9 160.60 ROQUEBRUNE SUR ARGENS, FRANCE
221 440 LOUISON MICHEL 04:36:08:200 E 89 116.60 SORBIERS, FRANCE
222 979 VILAPLANA JOSE 04:36:08:600 D 67 128.70 PIERRELATTE, FRANCE
223 399 SALVI JEAN 04:37:09:000 F 31 148.50 ORGELET, FRANCE
225 354 VIVIEN DAVID 04:37:10:600 C 21 154.00 COSNE, FRANCE
226 671 NODIN PIERRE 04:37:19:400 D 68 128.15 SAINT PERAY, FRANCE
227 135 ELMALEK DIDIER 04:37:22:000 E 91 115.50 NICE, FRANCE
228 836 BIGARE GERARD 04:37:23:000 E 92 114.95 BLAGNAC, FRANCE
229 981 SILVIANI SERGE 04:37:59:000 D 69 127.60 SEPTEMES LES VALLONS, FRANCE
230 2230 BAYO JEAN-JACQUES 04:38:02:600 E 93 114.40 BESANCON, FRANCE
231 2290 BERNARD PIERRE 04:38:11:000 F 32 147.95 ST ETIENNE EN DEVOLUY, FRANCE
232 2432 ALIAGA BRUNO 04:38:12:600 D 70 127.05 MIRAMAS, FRANCE
233 139 RONC MARCEL 04:38:15:000 E 94 113.85 ST ANDRE DE LA ROCHE, FRANCE
234 2162 SORROCHE JEAN PASCAL 04:38:36:000 E 95 113.30 ST CYR SUR MER, FRANCE
235 2173 MARTINS JORGE 04:38:40:000 D 71 126.50 LE COTEAU, FRANCE
236 2303 DECKERS JAN 04:38:42:500 F 33 147.40 OBBICHT, Pays-Bas
237 2361 GOOSSENS JEAN CLAUDE 04:39:06:000 E 96 112.75 STERREBEECK, BELGIQUE
238 2082 RICHARD ALAIN 04:39:08:000 E 97 112.20 ST ETIENNE, FRANCE
239 2354 BIANCONI FRANK 04:39:19:800 E 98 111.65 LES HOUCHES, FRANCE
240 2091 CAMIER STEPHANE 04:39:22:000 C 22 153.45 LA TALAUDIERE, FRANCE
241 848 LAFFONT CHRISTIAN 04:39:40:700 E 99 111.10 ST LAURENT DU PAPE, FRANCE
242 2163 LUGINBUHL MIKE 04:39:49:000 E 100 110.55 CHEXBRES, SUISSE
243 2005 ODORICO MICHEL 04:39:57:000 D 72 125.95 FLEURANCE, FRANCE
244 2342 BRECHBUHLER PASCAL 04:39:57:000 D 73 125.40 AMBILLY, FRANCE
245 2399 RAYNARD J.MARC 04:39:58:100 D 74 124.85 TARARE, FRANCE
246 2207 CARON JEAN CHRISTOPHE 04:39:58:800 D 75 124.30 BLAGNAC, FRANCE
247 2021 BARBEAU JEAN LOUIS 04:39:59:000 E 101 110.00 VARENNES VAUZELLES, France
248 2398 TRICAUD CHRISTOPHE 04:40:02:500 D 76 123.75 ST MARCEL L'ECLAIRE, FRANCE
249 498 RIVOLLIER PATRICE 04:40:10:000 D 77 123.20 LES ROCHES DE CONDRIEU, FRANCE
250 2211 PIOTEYRY CHRISTELLE 04:40:47:000 A 6 162.25 ST PRIEST EN JAREZ, FRANCE
251 2426 MAUME JACQUES 04:41:08:000 F 34 146.85 VOIRON, FRANCE
252 904 ENRIORE JEAN MARC 04:41:39:000 F 35 146.30 ANNECY LE VIEUX, FRANCE
253 2397 BATION CHRISTOPHE 04:41:59:000 D 78 122.65 LES SAUVAGES, FRANCE
254 285 GARRIC FRANCIS 04:42:07:000 E 102 109.45 ST ETIENNE DE TULMONT, FRANCE
255 2284 GOUDENT PASCAL 04:42:15:000 E 103 108.90 MONTPELLIER, FRANCE
256 2495 VADON THIERRY 04:42:54:000 E 104 108.35 LE PONTET, FRANCE
257 965 DECROIX LIONEL 04:43:03:000 D 79 122.10 ST JEAN D ARVEY, FRANCE
258 2178 COMBRICHON PATRICIA 04:43:10:000 B 2 164.45 ST DIDIER LA FORET, FRANCE
259 2226 PASSAS PIERRE 04:43:11:300 F 36 145.75 SORGUES, FRANCE
260 2467 PEYRO MICHEL 04:43:11:500 D 80 121.55 VIVIERS, FRANCE
261 2439 NICOLAIDES MAX 04:43:12:000 E 105 107.80 MARSEILLE, FRANCE
262 2339 JEAN PATRICK 04:43:13:000 F 37 145.20 GARGAS, FRANCE
263 2200 VINCENT PATRICK 04:43:56:000 E 106 107.25 ST PAUL TROIS CHATEAUX, FRANCE
264 2314 GAULANDEAU JULIEN 04:44:02:000 C 23 152.90 Clermont-Ferrand, France
265 982 POISSON PASCAL 04:44:12:000 E 107 106.70 GRENOBLE, FRANCE
266 2119 LENOGUE PATRICE 04:44:12:800 E 108 106.15 CHATENOIS, FRANCE
267 2329 ROBERT J.LUC 04:44:15:000 E 109 105.60 CHATEAUNEUF DE GADAGNE, FRANCE
268 909 JEGO PHILIP 04:44:18:000 E 110 105.05 GRAMBAIS, FRANCE
269 669 GOURDY FRANCK 04:44:20:000 C 24 152.35 BRIANCON, FRANCE
270 2377 BEULQUE EMMANUEL 04:44:24:000 D 81 121.00 POURCIEUX, FRANCE
272 2186 ZERBI ALESSANDRO 04:44:29:000 E 111 104.50 MILANO, ITALIE
273 2452 MOULARD SERGE 04:44:29:000 E 112 103.95 BELLEGARDE, FRANCE
274 2123 BASCOP PASCAL 04:44:30:700 D 82 120.45 ROANNE, France
275 192 HEITZ CLAUDE 04:44:54:000 G 10 160.05 CAUDEBEC LES ELBEUF, FRANCE
276 2218 MANGIAGALLI ANDREA 04:44:56:000 E 113 103.40 PIOLTELLO, ITALIE
277 2035 FALGAYRAC HENRI 04:45:08:000 G 11 159.50 LANCON DE PROVENCE, FRANCE
278 341 GARZUEL DOMINIQUE 04:45:18:000 E 114 102.85 VALS LES BAINS, FRANCE
279 2081 BAILLE STEPHANE 04:45:33:500 E 115 102.30 LE MAS STE PUELLE, FRANCE
280 2441 FAURE DIDIER 04:45:35:200 D 83 119.90 VALENCE, FRANCE
281 998 COSTE J PIERRE 04:45:38:000 D 84 119.35 GIGNAC LA NERTHE, FRANCE
282 2225 FERRAGUTI BERNARD 04:45:55:000 E 116 101.75 ANCELLE, FRANCE
283 2264 LHOSTE SERGE 04:45:58:000 E 117 101.20 COUTHERON, FRANCE
284 194 HERVE GERARD 04:46:03:000 E 118 100.65 BOUC BEL AIR, FRANCE
285 188 SMITH RAYMOND 04:46:04:000 F 38 144.65 MONACO, 24
286 887 SMITH DEREK 04:46:06:000 E 119 100.10 EPPING, Royaume-Uni
287 2258 GUILLERMIN JEAN PHILIPPE 04:46:18:600 D 85 118.80 LORIOL DU COMTAT, FRANCE
288 2421 GOBERVILLE VINCENT 04:46:21:000 E 120 99.55 MAREAU, FRANCE
289 2325 GAILLARD SOPHIE 04:46:22:000 A 7 161.70 PORCIEU AMBLAGNIEU, FRANCE
290 667 TAILHADES DIDER 04:47:01:000 D 86 118.25 MONTARNAUD, FRANCE
291 549 MORIN STEPHANE 04:47:02:200 E 121 99.00 ST JEAN DE FOS, FRANCE
292 627 PICARD SEBASTIEN 04:47:03:000 D 87 117.70 AUMELAS, FRANCE
293 2461 GUERIN ROBERT 04:47:04:000 G 12 158.95 RODHILAN, FRANCE
295 265 COLLETTE J.CLAUDE 04:47:13:700 G 13 158.40 BRUXELLES, BELGIQUE
296 2488 BOURILLON CYRILLE 04:47:31:000 C 25 151.80 MARSEILLE, FRANCE
297 2137 AUGEREAU JEAN MICHEL 04:47:33:000 E 122 98.45 MARTIGUES, FRANCE
298 2015 HUGUET THIERRY 04:47:58:500 E 123 97.90 BRAX, FRANCE
299 2014 MATHIEU PASCAL 04:48:00:000 E 124 97.35 COLOMIERS, FRANCE
300 2235 NOMINE HUBERT 04:48:00:000 F 40 143.55 ST ETIENNE DE CROSSEY, FRANCE
301 2141 DEJEAN GUY 04:48:02:000 F 41 143.00 PAMIERS, FRANCE
302 2363 JOLY CHRISTIAN 04:48:16:000 E 125 96.80 AVIGNON, FRANCE
303 2017 KRIEGER GILBERT 04:48:18:000 G 14 157.85 PALAFRUGELL, ESPAGNE
304 2243 VICENTE ROBERT 04:48:21:100 F 42 142.45 SABLET, FRANCE
305 2407 JONES KEITH 04:48:37:000 E 126 96.25 MENTON, FRANCE
306 2118 SANCHEZ EMMANUEL 04:48:43:000 E 127 95.70 ST MAXIMIN, FRANCE
307 2183 PONT SEVERINE 04:49:04:000 A 8 161.15 BERNEX, SUISSE
308 2132 PIASCO JEAN-LUC 04:49:05:000 F 43 141.90 SAINT MAXIMIN LA SAINTE BAUME, FRANCE
309 550 BRUN YVES 04:49:14:000 C 26 151.25 LA FOUILLOUSE, FRANCE
310 871 LELEU BERNARD 04:49:44:000 E 128 95.15 MEYZIEU, FRANCE
311 2056 SUIJKER CEES 04:50:07:000 G 15 157.30 VLAARDINBEN, Pays-Bas
312 2075 CONSTANTIN SERGE 04:50:26:000 D 88 117.15 BEAUMES DE VENISE, FRANCE
313 2074 COSTE ALAIN 04:50:28:000 D 89 116.60 AUBIGNAN, FRANCE
314 2451 LIEUTIER GERARD 04:50:37:000 D 90 116.05 SISTERON, FRANCE
315 2257 LLOBELL PHILIPPE 04:50:44:000 D 91 115.50 ST DIDIER, FRANCE
316 2259 GUILLERMIN CLAUDE 04:50:45:000 F 44 141.35 LORIOL DU COMTAT, FRANCE
317 2012 REQUIER CHRISTIAN 04:50:46:000 F 45 140.80 SERGEAC, FRANCE
318 2348 BERNARD PHILIPPE 04:50:46:500 E 129 94.60 PIOLENC, FRANCE
319 552 PECHDO DIDIER 04:50:49:300 F 46 140.25 AIX EN PROVENCE, FRANCE
320 2191 COLSON SEBASTIEN 04:51:34:000 D 92 114.95 BELLIGNAT, FRANCE
321 2317 BARALE MICHEL 04:51:34:600 E 130 94.05 PERNES LES FONTAINES, FRANCE
322 588 SANCHEZ JOSE 04:51:49:000 E 131 93.50 MIREVAL, FRANCE
323 2465 GOURDIN CHRISTOPHE 04:52:02:000 D 93 114.40 ST ETIENNE EN DEVOLUY, FRANCE
324 378 WILLE XAVIER 04:52:12:000 F 47 139.70 LENTIGNY, FRANCE
325 383 MACAGNINO PATRICK 04:52:12:700 E 132 92.95 LE COTEAU, FRANCE
326 382 LASSAIGNE PASCAL 04:52:13:400 E 133 92.40 LE COTEAU, FRANCE
327 379 DADOLLE YVES 04:52:14:000 F 48 139.15 VILLEREST, FRANCE
328 302 NIOLLET Romuald 04:52:15:000 C 27 150.70 SALLES ARBUISSONNAS, FRANCE
329 386 RIVOLIER JEAN LUC 04:52:16:000 D 94 113.85 RIORGES, FRANCE
330 389 RUIZ JEAN 04:52:17:400 F 49 138.60 ST ANDRE D'APCHON, FRANCE
331 2116 CASADEVALL MERLIN JEAN LOUIS 04:52:48:000 E 134 91.85 AUBAGNE, FRANCE
332 2312 BRUNAUD OLIVIER 04:53:18:000 E 135 91.30 BEDOIN, FRANCE
333 2212 DE BECKER DENIS 04:54:03:000 E 136 90.75 Saint Dié des Vosges, France
334 2245 HARMAND DAVID 04:54:04:500 D 95 113.30 ST DIE, FRANCE
335 2435 BOILLON MARCEL 04:54:07:600 E 137 90.20 GRIEGES, FRANCE
336 2434 BOILLON CATHERINE 04:54:07:900 B 3 163.90 GRIEGES, FRANCE
337 2484 GONTARD GEORGES 04:54:08:000 E 138 89.65 VOREPPE, FRANCE
338 2177 COCLET MARC 04:54:09:000 G 16 156.75 BELLEGARDE, FRANCE
339 2032 DELAITRE MICHEL 04:54:11:900 E 139 89.10 SAINT PIERRE DE HURTILLE, FRANCE
340 2085 DAVOURIE ANDRE 04:54:57:000 G 17 156.20 TOLLEVAST, FRANCE
341 938 PRIAULET MAX 04:55:24:000 E 140 88.55 MAUSSANE LES ALPILLES, FRANCE
342 590 PAGLIAI ALAIN 04:55:52:000 G 18 155.65 FRONTIGNAN, FRANCE
343 2002 SMITH FRED 04:55:56:000 G 19 155.10 BOLTON, Royaume-Uni
344 340 QUINTAINE ROBERT 04:56:21:100 E 141 88.00 MARSEILLE, FRANCE
345 410 PROTOY ALAIN 04:56:23:000 F 50 138.05 DIJON, FRANCE
346 2040 FILA MICHEL 04:56:27:000 C 28 150.15 FABREGUES, FRANCE
347 2128 THIROT ERIC 04:56:56:000 D 96 112.75 OIZON, FRANCE
348 2332 MEYER ADRIEN 04:56:57:000 F 51 137.50 MARSEILLE, FRANCE
349 2133 MOAL JEAN FRANCOIS 04:57:14:000 E 142 87.45 MARSEILLE, FRANCE
350 2202 GIBOUT ROBERT 04:57:15:000 G 20 154.55 BELESTA, FRANCE
351 826 OOYEVAAR FRANK 04:57:25:000 E 143 86.90 NOORD-SCHARWOUDE, Pays-Bas
352 381 LABROSSE MARC 04:57:28:000 G 21 154.00 ROANNE, FRANCE
353 2113 ISNARD GILBERT 04:57:57:000 G 22 153.45 AIX EN PROVENCE, FRANCE
354 960 CIOCIOLA ANTONIO 04:58:10:000 D 97 112.20 FRANCHEVILLE, France
355 2206 SANDEVOIR MICHEL 04:58:11:000 F 52 136.95 ST PAUL DE VARCES, FRANCE
356 2433 BEN ABDESLEM 04:58:14:000 F 53 136.40 GRUISSAN, FRANCE
357 436 GIBERT CLAUDE 04:58:19:600 D 98 111.65 LA TALAUDIERE, FRANCE
358 808 GARDIOL J.CLAUDE 04:58:48:000 F 54 135.85 MONTEUX, FRANCE
359 2114 SARACCO SERGE 04:59:01:900 F 55 135.30 MARSEILLE, FRANCE
360 2281 GENDRE CHRISTIAN 04:59:02:800 E 144 86.35 MACON, FRANCE
361 2254 SANGAYRAC GUY 04:59:04:300 F 56 134.75 NARBONNE, FRANCE
362 2280 CERSOT JEAN-PAUL 04:59:05:000 F 57 134.20 MACON, FRANCE
363 2027 DESRAYAUD JACQUES 04:59:07:000 F 58 133.65 LIVRON SUR DROME, FRANCE
364 2194 GERARD WILLY 05:00:06:000 D 99 111.10 GERARDMER, FRANCE
365 2333 VALSON MICHEL 05:00:13:300 E 145 85.80 CHAVANOD, FRANCE
366 859 LE CHENADEC BERNARD 05:00:47:000 E 146 85.25 VALLABREGUES, FRANCE
367 607 VAN DER SIJDE LEN 05:00:58:000 E 147 84.70 DORDRECHT, Pays-Bas
368 2300 KLEIJER ALBERT 05:01:09:000 E 148 84.15 APELDOORN, Pays-Bas
369 683 REYNAUD LAURENT 05:01:36:900 D 100 110.55 SAINT RAMBERT D ALBON, FRANCE
370 516 MARTINELLI LAURENT 05:02:02:000 C 29 149.60 VELAUX, FRANCE
371 2151 LERAY JEAN 05:02:36:000 G 23 152.90 SAUTRON, FRANCE
372 880 FAILLET ALAIN 05:02:51:500 F 59 133.10 GIVORS, FRANCE
373 2307 KRUEGER THOMAS 05:02:55:000 E 149 83.60 GROSSSCHWEIDNITZ, ALLEMAGNE
374 2161 MARCENAC FREDERIC 05:03:04:000 C 30 149.05 LLUPIA, FRANCE
375 2410 WEULERSSE BERNARD 05:03:44:000 D 101 110.00 ST GENIS LAVAL, FRANCE
376 2020 FEVRIER BERNARD 05:03:51:000 F 60 132.55 LAPUGNOY, FRANCE
377 250 ANDRE JACQUES 05:04:10:200 F 61 132.00 SOUCIEU EN JARREST, FRANCE
378 12 RICO LAURE 05:04:23:000 A 9 160.60 GRENOBLE, FRANCE
379 984 DESBRE PHILIPPE 05:04:49:000 E 150 83.05 MABLY, FRANCE
380 615 TOSI CHRISTIAN 05:05:10:000 F 62 131.45 PLAN DE CUQUES, FRANCE
381 2321 CHARPENTIER CHRISTIAN 05:05:38:000 F 63 130.90 ORANGE, FRANCE
382 2134 SAUVE HUGUES 05:05:44:000 E 151 82.50 MARSEILLE, FRANCE
383 2460 VILLARD CAROLE 05:05:49:800 A 10 160.05 MERCUROL, FRANCE
384 2347 PRIGENT ANDRE 05:05:50:000 E 152 81.95 CAMARET SUR AIGUES, FRANCE
385 2025 COTTET FREDERIC 05:05:55:000 C 31 148.50 BEAUREPAIRE, FRANCE
386 2157 OLIVE DOMINIQUE 05:05:57:000 F 64 130.35 PUJAUT, FRANCE
387 2475 MAUGER GERARD 05:06:15:000 F 65 129.80 GENAS, FRANCE
388 2220 HERY JOEL 05:06:21:000 E 153 81.40 VILLE ISSEY, FRANCE
389 685 MONNIER J.LUC 05:06:26:000 F 66 129.25 COUTERNE, FRANCE
390 2454 SIMON THIERRY 05:08:16:000 D 102 109.45 CHATEAUNEUF DU RHONE, FRANCE
391 2239 GLANTENAY ERIC 05:08:48:000 D 103 108.90 DIJON, FRANCE
392 2068 PROST-BOUCLE CHANTAL 05:08:52:800 B 4 163.35 LONS LE SAUNIER, FRANCE
393 2172 KLEIJER ELS 05:08:54:100 B 5 162.80 APELDOORN, Pays-Bas
394 2038 VAYSSETTES OLIVIER 05:08:54:500 D 104 108.35 MARSEILLE, FRANCE
395 986 MAZET JEAN MICHEL 05:08:55:000 D 105 107.80 ALBI, FRANCE
396 2336 CANOVAS ALAIN 05:08:55:000 E 154 80.85 FOS SUR MER, FRANCE
397 2415 CIOCCA ALAIN 05:08:56:000 E 155 80.30 Corseaux, Suisse
398 710 CONTIES HUGUES 05:09:00:000 F 67 128.70 MARTIGUES, FRANCE
399 2227 FAURE SERGE 05:09:01:200 E 156 79.75 DOMENE, FRANCE
400 402 GUITTARD FRANCK 05:09:32:000 D 106 107.25 CLERMONT FERRAND, FRANCE
401 2039 SIROU JEAN LUC 05:10:03:000 D 107 106.70 MARSEILLE, FRANCE
402 2095 DEVEAUX GILLES 05:10:30:000 E 157 79.20 SAINT JEAN BONNEFONDS, FRANCE
403 2328 DELBARD FRANCIS 05:10:55:000 E 158 78.65 MOUTIER ROZEILLE, FRANCE
405 2107 DUMOULIN JEAN LOUIS 05:11:43:000 E 160 77.55 PARIS, FRANCE
407 53 LEGROS ALAIN 05:12:31:000 E 161 77.00 SERAING, BELGIQUE
408 2293 ROUANET THIERRY 05:13:10:000 D 108 106.15 GRUISSAN, FRANCE
409 2448 PIMENTE FRANCIS 05:13:24:000 E 162 76.45 CRUAS, FRANCE
410 2362 CALUWAERTS FRANCOIS 05:13:34:000 F 68 128.15 BRUSSEL, BELGIQUE
411 2337 MAAS JOEP 05:13:44:000 D 109 105.60 HUIZEN, Pays-Bas
412 2370 DI NICOLAS THIERRY 05:14:03:000 E 163 75.90 SORGUES, FRANCE
413 2310 FADAT CEDRIC 05:14:05:200 C 32 147.95 SAINT PAUL TROIS CHATEAUX, FRANCE
414 2463 PROUTEAU JEAN 05:14:36:000 F 69 127.60 HYERES, FRANCE
415 2286 POSAWATZ JEAN 05:14:40:000 G 24 152.35 PORT DE BOUC, FRANCE
416 905 FONZO MARC 05:14:50:400 F 70 127.05 BRUE AURIAC, FRANCE
417 326 BARRIERE CHRISTIAN 05:15:43:000 E 164 75.35 ISSOIRE, FRANCE
418 820 MIZRAHI DAVID 05:15:54:700 D 110 105.05 VEDENE, FRANCE
419 362 MAZZOLINI PASCAL 05:15:56:000 E 165 74.80 CORMONTREUIL, FRANCE
420 473 LIENARD FRANCK 05:17:12:000 E 166 74.25 ST CHAMAS, FRANCE
421 620 SEVE MAX 05:17:13:000 E 167 73.70 AMBERIEUX EN DOMBES, FRANCE
422 957 LLINARES JEAN YVES 05:17:55:000 D 111 104.50 MARSEILLE CEDEX, FRANCE
423 2479 DAMOFLI JEAN 05:17:56:000 E 168 73.15 MARTIGUES, FRANCE
424 2292 COLOMBET DANIEL 05:17:58:000 E 169 72.60 NIMES, FRANCE
425 2205 JOURDAN VERONIQUE 05:18:33:000 B 6 162.25 MARSEILLE, FRANCE
426 2413 VEDOVATI SERGE 05:19:05:000 E 170 72.05 AVIGNON, FRANCE
427 972 DOUSSON DANIEL 05:19:08:900 F 71 126.50 POUILLY LES NONAINS, FRANCE
428 2263 GAILLARDET JEAN FRANCOIS 05:19:37:000 E 171 71.50 FIXIN, FRANCE
429 2248 SANT JACQUES 05:19:44:000 F 72 125.95 CAZOULS LES BEZIERS, FRANCE
430 2010 DE COSTA VALTER 05:20:08:000 F 73 125.40 HUY, BELGIQUE
431 2324 VANDERSANDE ROLAND 05:20:13:900 F 74 124.85 STERREBEEK, FRANCE
432 2271 COURAGIER NORBERT 05:20:16:600 F 75 124.30 BEZIERS, FRANCE
433 2125 DUPOUX DAVID 05:20:23:400 D 112 103.95 AUBAUSSON D'AUVERGNE, FRANCE
434 2086 RAVEL GUY 05:20:27:000 F 76 123.75 LA TALAUDIERE, FRANCE
435 994 ROUSSERIE JEAN-PAUL 05:20:27:900 F 77 123.20 SAINT JEAN BONNEFONDS, FRANCE
436 360 BUONOCORE HENRI 05:20:57:500 G 25 151.80 SANARY / MER, FRANCE
438 2159 DEGACHE JEAN PAUL 05:22:02:000 F 78 122.65 SARRAS, FRANCE
439 971 GROIX REMY 05:22:04:300 F 79 122.10 CLEGUER, FRANCE
440 2160 DEGACHE GHISLAINE 05:22:04:600 B 7 161.70 SARRAS, FRANCE
441 988 ABADIE GASTON 05:22:06:400 F 80 121.55 FREJUS, FRANCE
442 2147 BRUNO ALAIN 05:22:07:000 E 172 70.95 HYERES, FRANCE
443 2149 BONNAURE CHRISTOPHE 05:22:07:000 D 113 103.40 HYERES, FRANCE
444 973 GROTH DANIEL 05:22:52:000 D 114 102.85 BELMONT, SUISSE
445 2346 CORALLO JACQUES 05:23:24:000 F 81 121.00 NICE, FRANCE
446 2062 DUCHENE VERONIQUE 05:23:42:000 A 11 159.50 PRINGY, FRANCE
447 2208 GAZULLA CEDRIC 05:24:10:000 C 33 147.40 SAINT ETIENNE, FRANCE
448 63 CARLIER DIRK 05:24:16:000 D 115 102.30 VORSELAAR, BELGIQUE
449 853 COMBAUDON LOUIS 05:24:37:500 F 82 120.45 ST PRIEST EN JAREZ, FRANCE
450 2196 SGARAMELLA DENIS 05:24:46:400 D 116 101.75 PRINGY, FRANCE
451 2019 NEGRO ERIC 05:24:46:800 E 173 70.40 MARSEILLE, FRANCE
452 2100 MATOS VIVIANE 05:25:34:000 B 8 161.15 LA TALAUDIERE, FRANCE
453 2489 PANTEGNIES LAURENT 05:26:08:000 D 117 101.20 MAZAN, FRANCE
454 2072 MIKEZOVA LUDKA 05:26:43:000 A 12 158.95 ROTTERDAM, Pays-Bas
455 2437 TORRE GIOVANNI 05:26:47:000 F 83 119.90 GENOVA, ITALIE
456 2436 KIRMSER VALRIE 05:26:47:700 A 13 158.40 ROQUEBRUNE SUR ARGENS, FRANCE
457 2444 PERMINGEAT JEAN PAUL 05:27:34:000 F 84 119.35 LIVRON SUR DROME, FRANCE
458 864 BOUCHER ROLAND 05:27:59:700 E 174 69.85 BRIGNAIS, FRANCE
459 2087 DUPUY JACKY 05:28:17:000 E 175 69.30 SAINT JEAN BONNEFONDS, FRANCE
460 2174 HOBON ANNICK 05:29:10:000 B 9 160.60 ELBEUF, FRANCE
461 2440 GUIGNARD J.CLAUDE 05:29:11:000 E 176 68.75 LAIZ, FRANCE
462 2438 DUROUX JEAN YVES 05:29:12:400 E 177 68.20 PONT DE VEYLE, FRANCE
463 2026 VIGNEAU JEAN CLAUDE 05:29:12:700 G 26 151.25 EYCHEIL, FRANCE
464 537 PEIFFER THIERRY 05:29:45:000 E 178 67.65 NEUVILLE ST AMAND, FRANCE
465 358 NICOLAIEFF LUC 05:29:46:200 F 85 118.80 BANDOL, FRANCE
466 585 AFFRE J.CLAUDE 05:30:15:600 F 86 118.25 SAUVIAN, FRANCE
467 768 KOOL WILLEM 05:30:38:300 E 179 67.10 HAARLEM, Pays-Bas
468 2066 GISCLARD MARCEL 05:31:49:000 E 180 66.55 CORNEILHAN, FRANCE
469 2067 BAETA JEAN YVES 05:31:50:100 D 118 100.65 QUARANTE, FRANCE
470 204 CHOCHOY DANIEL 05:32:05:000 G 27 150.70 BRUNOY, FRANCE
471 2326 LEDENT JACKIE 05:32:18:000 E 181 66.00 ST GIRONS, FRANCE
472 2327 PONS YVES 05:32:19:600 F 87 117.70 SAINTE CROIX VOLVESTRE, FRANCE
473 970 MERLIN MICHELE 05:32:20:000 B 10 160.05 ALLAUCH, FRANCE
474 2152 WONDERGEM ESTHER 05:32:20:300 A 14 157.85 ROTTERDAM, Pays-Bas
475 2322 RICHARD ALBERT 05:32:21:000 G 28 150.15 ANIANE, FRANCE
476 2136 SARNELLI JEAN PAUL 05:32:22:000 E 182 65.45 MARSEILLE, FRANCE
477 2234 NAVARRO PHILIPPE 05:32:44:000 D 119 100.10 CEYRAS, FRANCE
478 2376 OLLIVIER ANNIE 05:33:16:000 B 11 159.50 YSSINGEAUX, FRANCE
479 963 SAEZ BERNARD 05:33:37:000 E 183 64.90 ALLAUCH, FRANCE
480 269 REVEILLAULT BERNARD 05:33:51:200 E 184 64.35 LE BOURGET DU LAC, FRANCE
481 2232 NADAL MICHEL 05:34:22:000 E 185 63.80 VILLENEUVE LES MAGUELONE, FRANCE
482 2381 POUYOUNE VALERIE 05:34:27:000 B 12 158.95 VILLEURBANNE, FRANCE
483 989 ZAMORA OLIVIER 05:34:29:300 D 120 99.55 BIOT, FRANCE
484 732 BORNMANN REINHARD 05:34:42:000 F 88 117.15 KASSEL, DANEMARK
485 268 LE BER PHILIPPE 05:35:52:000 D 121 99.00 ARGENTEUIL, FRANCE
486 906 BURGAGNI J.CLAUDE 05:35:57:000 F 89 116.60 HERBEYS, FRANCE
487 2429 ETIENNE GUY 05:37:22:000 F 90 116.05 MARSILLARGUES, FRANCE
488 2272 JOLLIVET MAX 05:37:49:000 I 1 165.00 SAINT THOME, FRANCE
489 2360 BRIE JEAN CLAUDE 05:37:51:700 F 91 115.50 SAINT FRONT LA RIVIERE, FRANCE
490 2274 DEBOS BERNARD 05:37:51:800 D 122 98.45 ALBA LA ROMAINE, FRANCE
491 2146 BEVERAGGI JEAN PIERRE 05:37:52:000 E 186 63.25 HYERES, FRANCE
493 438 FERREOL GILLES 05:38:18:500 E 187 62.70 ST PRIEST EN JAREZ, FRANCE
494 2223 GRATTARD ALAIN 05:38:32:000 G 29 149.60 IZERNORE, FRANCE
495 2052 GRATTARD BERTRAND 05:38:33:900 G 30 149.05 MATAFELON GRANGES, FRANCE
497 2323 VERBEECK SYLVERUS 05:38:55:100 G 31 148.50 VORSELAAR, BELGIQUE
498 935 CHAINET JEAN PAUL 05:40:13:000 E 189 61.60 PONT SAINT ESPRIT, FRANCE
499 2203 BRUGEAS THIERRY 05:40:37:000 F 92 114.95 GRENOBLE, FRANCE
500 855 FABRE SERGE 05:41:01:000 E 190 61.05 LANCRANS, FRANCE
501 2244 VOYANT JEAN PAUL 05:41:13:000 D 123 97.90 MORNANT, FRANCE
502 2305 HOFMAN ROEL 05:41:14:500 F 93 114.40 APELDOORN, Pays-Bas
503 2393 GRANGIER CHRISTOPHE 05:41:48:000 D 124 97.35 MONTEUX, FRANCE
504 2209 GAZZULA GILLES 05:42:55:000 E 191 60.50 SAINT ETIENNE, FRANCE
505 2335 CHARVET REMY 05:42:58:000 G 32 147.95 CHATEAUVILAIN, FRANCE
506 689 PAUWELS MARCEL 05:43:55:000 F 94 113.85 LAGNIEU, FRANCE
507 2405 PORCHER ISABELLE 05:44:03:000 B 13 158.40 GUILLESTRE, FRANCE
508 980 PLEINDOUX CLAUDE 05:44:34:000 E 192 59.95 MARSEILLE, FRANCE
509 2145 NICOLAS JEAN PIERRE 05:44:39:000 F 95 113.30 SAULON LA CHAPELLE, FRANCE
510 2036 PASCAL CLAUDE 05:45:35:000 F 96 112.75 VELAUX, FRANCE
511 36 BRIQUET ALBERT 05:46:04:500 G 33 147.40 CATUS, FRANCE
512 2155 RICHARTE MANUEL 05:46:08:000 E 193 59.40 ROANNE, FRANCE
513 2291 GOUTORBE GEORGES 05:46:08:900 E 194 58.85 ROANNE, FRANCE
514 662 AZEMAR ALAIN 05:46:27:000 F 97 112.20 MONTARNAUD, FRANCE
515 968 PALMADE ROMAIN 05:46:33:000 C 34 146.85 AURIOL, FRANCE
516 2442 DRIESSENS GERARD 05:47:14:000 F 98 111.65 PUGET DURANCE, FRANCE
517 778 RAINARD STEPHANE 05:47:29:100 D 125 96.80 CHARENTON LE PONT, FRANCE
518 419 BLANKERS FRED 05:48:00:000 F 99 111.10 CHASSIERS, FRANCE
519 2390 DUSSEL PIERRE 05:48:09:000 G 34 146.85 PEZENAS, FRANCE
520 2391 PAGES ROBERT 05:48:14:800 G 35 146.30 CARPENTRAS, FRANCE
521 2101 MATOS MANUEL 05:48:17:000 E 195 58.30 LA TALAUDIERE, FRANCE
522 2057 SCORLETTI CHANTALE 05:48:18:000 B 14 157.85 AIX EN PROVENCE, FRANCE
523 2199 MORENO JEAN FRANCOIS 05:48:36:000 E 196 57.75 BELESTA, FRANCE
524 2316 DEDEKEN JACQUES 05:48:52:000 G 36 145.75 LASNE, BELGIQUE
525 437 VACHER ALAIN 05:49:09:000 F 100 110.55 SORBIERS, FRANCE
526 444 DEBARD JEAN PAUL 05:49:11:000 F 101 110.00 SAINT ETIENNE, FRANCE
527 435 DECOMBE FRANCOIS 05:49:11:200 E 197 57.20 SAINT JEAN BONNEFONDS, FRANCE
528 739 HAKSTEGE BEN 05:49:25:000 D 126 96.25 ALMERE, Pays-Bas
529 2089 LOMBARD ALBERT 05:49:44:000 F 102 109.45 ST PRIEST EN JAREZ, FRANCE
530 869 CRAMPE CHRISTIAN 05:49:56:000 E 198 56.65 COUZON AU MONT D'OR, FRANCE
531 2289 DIDES JEAN JACQUES 05:50:37:000 E 199 56.10 PEZENAS, FRANCE
532 2338 MAAS JOSEF 05:50:53:000 G 37 145.20 HUIZEN, Pays-Bas
533 2319 LACROIX ANNE 05:51:38:000 B 15 157.30 OULLINS, FRANCE
534 2320 TAVIN BRUNO 05:51:39:000 F 103 108.90 ECULLY, FRANCE
535 2378 BARTHES DIDIER 05:52:10:000 E 200 55.55 MEYZIEU, FRANCE
536 2493 PLATET J.LUC 05:52:10:800 E 201 55.00 ST GELY DU FESC, FRANCE
537 2492 DELMAS OLIVIER 05:52:35:000 D 127 95.70 JUVIGNAC, FRANCE
538 2375 SIMONNET RENE 05:52:49:000 F 104 108.35 YSSINGEAUX, FRANCE
539 2394 BOQUELET BRUNO 05:53:44:000 D 128 95.15 ST PAUL TROIS CHATEAUX, FRANCE
540 2334 TERRAGE GILBERT 05:53:47:000 G 38 144.65 BERNIN, FRANCE
541 293 COURQUIN JEAN PIERRE 05:54:20:000 F 105 107.80 LE VAL ST GERMAIN, FRANCE
542 60 GARREAU GILLES 05:55:05:000 D 129 94.60 Vallées en Champagne, France
543 741 RENAULT MICHEL 05:56:10:000 F 106 107.25 CHALONS EN CHAMPAGNE, FRANCE
544 2481 SILLEGUE PATRICK 05:56:15:000 E 202 54.45 GASSIN, FRANCE
545 2102 BOUTEILLE MICHEL 05:56:16:400 F 107 106.70 LA TALAUDIERE, FRANCE
546 2103 COLIN CECILE 05:56:16:400 A 15 157.30 SORBIERS, FRANCE
547 928 GRINAND ROBERT 05:57:15:000 E 203 53.90 PELISSANNE, FRANCE
548 796 MARCON PATRICK 05:57:16:400 F 108 106.15 ST SAVOURNIN, FRANCE
549 2088 THORILLON FABRICE 05:57:23:000 D 130 94.05 LA TALAUDIERE, FRANCE
550 682 VERNIS FRANCK 05:58:03:000 D 131 93.50 ST MAMMES, FRANCE
551 2251 MAGNARELLO JEAN FRANCOIS 05:58:11:000 C 35 146.30 PIGNANS, FRANCE
552 2315 VAN GUCHT JEAN CLAUDE 05:58:18:700 F 109 105.60 BRUXELLES, BELGIQUE
553 693 ABIS GILBERT 05:58:38:000 G 39 144.10 ORGELET, FRANCE
554 2061 THIMONIER DANIELE 05:58:38:400 B 16 156.75 ROANNE, FRANCE
555 2418 FORGEOT SERGE 05:58:59:000 E 204 53.35 MARSEILLE, FRANCE
556 2403 GUIGNET ROBERT 05:59:40:800 E 205 52.80 JULIENAS, FRANCE
557 2423 MOREAU BERNARD 06:01:23:000 F 110 105.05 CHASSAGNE MONTRACHET, FRANCE
558 2106 FABRE FREDERIC 06:01:46:000 D 132 92.95 PARIS, FRANCE
559 2231 LEROUX PAUL 06:02:57:000 E 206 52.25 ST ANDRE DE SANGONIS, FRANCE
560 2446 LONJARET CAMILLE 06:03:59:000 G 40 143.55 CROTTET, FRANCE
561 2447 MERMET MARTINE 06:04:01:000 B 17 156.20 CROTTET, FRANCE
562 2406 LAURENT BERNARD 06:04:34:000 D 133 92.40 CARPENTRAS, FRANCE
563 2166 BAHURLET LUDOVIC 06:04:35:000 C 36 145.75 MARSEILLE, FRANCE
564 675 LE BERRE JEAN 06:04:36:000 F 111 104.50 LYON, FRANCE
565 966 PERRET ANICK 06:05:15:000 A 16 156.75 AOSTE, FRANCE
566 2252 COLPIN MARC 06:05:15:800 E 207 51.70 PIGNANS, FRANCE
567 975 KORST JEAN MARIE 06:05:17:000 F 112 103.95 TILBURG, Pays-Bas
568 2250 VANGELISTI BRUNO 06:06:13:000 E 208 51.15 PIGNANS, FRANCE
569 2408 CLITHEROE ROS 06:06:53:700 A 17 156.20 BUCKS, Royaume-Uni
570 2237 BOUZIAT JEAN-FRANCOIS 06:07:04:000 D 134 91.85 OULLINS, FRANCE
571 996 PASMAN ANDRE 06:08:23:000 D 135 91.30 UTRECHT, Pays-Bas
572 997 TER HENNEPE SHANE 06:08:23:000 D 136 90.75 GOUDA, Pays-Bas
573 2416 BOLOMEY GERARD 06:08:57:000 E 209 50.60 LAUSANNE, SUISSE
574 830 BONI PIERRE 06:08:58:000 G 41 143.00 MARSEILLE, FRANCE
575 708 MEHEUST ALAIN PHILIPPE 06:09:31:000 E 210 50.05 GUILHERAND GRANGES, FRANCE
576 2473 ALVAREZ CHRISTIAN 06:10:02:000 F 113 103.40 ST PRIEST, FRANCE
577 967 PERRET PIERRE 06:11:01:000 F 114 102.85 FITILIEU, FRANCE
578 2367 MIK HARM 06:11:04:000 G 42 142.45 KOLHAM, Pays-Bas
579 2366 KUIPERS JOOP 06:11:05:800 G 43 141.90 HOOGEZAND, Pays-Bas
580 2306 SCHWAN ANNETTE 06:12:39:000 A 18 155.65 GROSSSCHWEIDNITZ, ALLEMAGNE
581 2270 MEINEMA ALOYS 06:12:42:000 D 137 90.20 AMSTERDAM, Pays-Bas
582 2051 RIJKHOFF JOS 06:14:34:000 D 138 89.65 AMSTERDAM, Pays-Bas
583 591 WATKINSON THOMAS 06:14:34:700 D 139 89.10 LANS EN VERCORS, FRANCE
584 2092 GRANOTTIER SEBASTIEN 06:15:34:000 C 37 145.20 SAINT ETIENNE, FRANCE
585 2491 GAY JEAN MARC 06:15:42:000 D 140 88.55 PEYROLLES EN PROVENCE, FRANCE
586 2115 GRINAND LOUIS 06:18:44:700 G 44 141.35 LA CIOTAT, FRANCE
587 439 FEVRE MICHEL 06:21:06:900 E 211 49.50 SAINT ETIENNE, FRANCE
588 2249 BERENGUER JEAN-MARC 06:22:22:000 G 45 140.80 LE PONTET, FRANCE
590 2384 KRUIJVER RICHARD 06:23:03:000 D 142 87.45 PURMEREND, Pays-Bas
591 2255 VERDOUW LINDA 06:23:04:000 A 19 155.10 KARDEHERH, Pays-Bas
592 2170 GREGOIRE CHRISTIAN 06:23:46:000 F 115 102.30 ASNIERES SUR SEINE, FRANCE
593 2171 PARET JEAN 06:23:46:000 F 116 101.75 BAISON LA ROMAINE, FRANCE
594 2176 GAZIELLY ANTOINE 06:25:03:000 D 143 86.90 GRENOBLE, FRANCE
595 2094 ZUNINO ERIC 06:25:42:000 D 144 86.35 SAINT ETIENNE, FRANCE
596 2093 COLIN ANNIE 06:27:45:000 F 117 101.20 SORBIERS, FRANCE
597 2374 MAASDAM ADRIAAN 06:28:12:100 C 38 144.65 MOURHEELENLAND, Pays-Bas
598 2073 VAN GENT SJOERD 06:28:12:300 C 39 144.10 ROTTERDAM, Pays-Bas
600 765 BOHN BIRGITT 06:28:35:000 A 20 154.55 FRANKFURT, ALLEMAGNE
601 807 VAHLE BERND 06:28:42:000 E 212 48.95 FRANKFURT, ALLEMAGNE
602 806 VAHLE CHRISTIANE 06:28:42:700 E 213 48.40 FRANKFURT, ALLEMAGNE
603 2383 OSINGA EELCO 06:28:52:000 D 145 85.80 AMSTELVEEN, Pays-Bas
604 2096 PORTAL ROBERT 06:28:59:000 E 214 47.85 SORBIERS, FRANCE
606 2343 HAMMANN SUZANNE 06:31:19:000 A 21 154.00 KARLSRUHE, ALLEMAGNE
607 983 HAAK NANCO 06:31:53:200 D 146 85.25 AMSTELVEEN, Pays-Bas
608 523 CARSANA JOEL 06:32:16:000 F 118 100.65 GEVIGNEY, FRANCE
609 522 JACOB HERVE 06:32:21:000 E 215 47.30 PURGEROT, FRANCE
610 2099 BOLIVAR JOSEFA 06:34:55:000 B 18 155.65 SAINT ETIENNE, FRANCE
611 2401 VALVERDE JOSEPH 06:34:58:000 D 147 84.70 NARBONNE, FRANCE
612 2097 ROSSARY ROBERT 06:35:29:000 E 216 46.75 SORBIERS, FRANCE
613 828 MANON ROLAND 06:37:14:000 F 119 100.10 DOMENE, FRANCE
614 802 BORGNIET JEAN MARIE 06:37:49:000 G 46 140.25 CHIMAY, BELGIQUE
615 2048 DE VROOMEN ARNOUD 06:38:54:000 D 148 84.15 ROTTERDAM, Pays-Bas
616 787 GUEIBE GUY 06:39:00:000 F 120 99.55 VAUX SURE, BELGIQUE
617 2046 CHOCHOY FRANCELINE 06:40:04:000 B 19 155.10 BRUNOY, FRANCE
618 2041 LAWRY BEVERLEY 06:41:57:000 A 22 153.45 ORLEANS, FRANCE
619 2037 BRUNE J.LOUIS 06:41:58:300 F 121 99.00 ORLEANS, FRANCE
620 985 MARTIN ROGER 06:43:08:000 F 122 98.45 VILLENEUVE LES AVIGNON, FRANCE
621 2049 LEKKERKERKER RONALD 06:46:52:000 D 149 83.60 ZWOLLE, Pays-Bas
622 2071 HEUSY LUCIEN 06:46:53:000 D 150 83.05 UTRECHT, Pays-Bas
623 420 PINXTEREN HELENA 06:48:12:000 B 20 154.55 CHASSIERS, FRANCE
624 2301 KAPTEIN JOANNE 06:49:54:000 A 23 152.90 MARGRATEN, Pays-Bas
625 2169 DELAMOTTE ALAIN 06:50:06:000 F 123 97.90 ASNIERES SUR SEINE, FRANCE
626 2477 LACOURBAS ALAIN 06:55:14:000 F 124 97.35 VILLETTE D ANTHON, FRANCE
627 2126 VAN BEEK GERT 07:00:35:600 F 125 96.80 LELYSTAD, Pays-Bas
628 961 SABATHE JEAN-MARIE 07:04:26:000 E 217 46.20 PERTUIS, FRANCE
629 2047 VELDKAMP HARRY 07:05:23:600 D 151 82.50 ZEIST, Pays-Bas
630 328 SERRA THIERRY 07:06:13:500 D 152 81.95 VALENCE, France
631 2382 RENOU LAURENT 07:25:05:000 E 218 45.65 LA CHAPELLE EN VERCORS, FRANCE
632 2240 PERRIN BERNARD 07:25:57:000 F 126 96.25 AIGUILHE, FRANCE
633 2023 CHANTELOUP OLIVIER 08:14:38:000 E 219 45.10 HYERES, FRANCE

La Vaujany

Après une saison 2020 très particulière et face à cette pandémie qui s'étire en longueur, nous avons dû nous adapter.

Ainsi, c'est avec beaucoup de regrets que nous vous annonçons que La Vaujany ne sera pas organisée en 2021.

Nous travaillons afin que vous puissiez relever le défi de manière alternative.

Nous vous tiendrons informés.
TOP